sensor_id;sensor_type;location;lat;lon;timestamp;P1;durP1;ratioP1;P2;durP2;ratioP2
8100;SDS011;4093;53.470;9.832;2023-04-12T00:01:13;10.23;;;4.53;;
8100;SDS011;4093;53.470;9.832;2023-04-12T00:03:42;15.93;;;4.60;;
8100;SDS011;4093;53.470;9.832;2023-04-12T00:06:16;9.73;;;4.40;;
8100;SDS011;4093;53.470;9.832;2023-04-12T00:08:43;8.53;;;4.73;;
8100;SDS011;4093;53.470;9.832;2023-04-12T00:11:12;9.33;;;4.53;;
8100;SDS011;4093;53.470;9.832;2023-04-12T00:13:40;10.27;;;4.30;;
8100;SDS011;4093;53.470;9.832;2023-04-12T00:16:07;10.57;;;4.53;;
8100;SDS011;4093;53.470;9.832;2023-04-12T00:18:35;8.13;;;4.87;;
8100;SDS011;4093;53.470;9.832;2023-04-12T00:21:05;16.87;;;4.83;;
8100;SDS011;4093;53.470;9.832;2023-04-12T00:23:33;8.17;;;4.70;;
8100;SDS011;4093;53.470;9.832;2023-04-12T00:26:03;7.87;;;4.50;;
8100;SDS011;4093;53.470;9.832;2023-04-12T00:28:31;12.50;;;4.80;;
8100;SDS011;4093;53.470;9.832;2023-04-12T00:30:59;11.67;;;4.23;;
8100;SDS011;4093;53.470;9.832;2023-04-12T00:33:26;8.47;;;4.70;;
8100;SDS011;4093;53.470;9.832;2023-04-12T00:35:54;12.67;;;4.73;;
8100;SDS011;4093;53.470;9.832;2023-04-12T00:38:23;10.67;;;4.30;;
8100;SDS011;4093;53.470;9.832;2023-04-12T00:40:51;9.83;;;4.30;;
8100;SDS011;4093;53.470;9.832;2023-04-12T00:43:19;10.27;;;4.50;;
8100;SDS011;4093;53.470;9.832;2023-04-12T00:45:46;14.50;;;5.47;;
8100;SDS011;4093;53.470;9.832;2023-04-12T00:48:14;10.77;;;4.40;;
8100;SDS011;4093;53.470;9.832;2023-04-12T00:50:42;10.47;;;4.40;;
8100;SDS011;4093;53.470;9.832;2023-04-12T00:53:12;11.60;;;4.77;;
8100;SDS011;4093;53.470;9.832;2023-04-12T00:55:41;8.87;;;4.30;;
8100;SDS011;4093;53.470;9.832;2023-04-12T00:58:10;11.30;;;3.87;;
8100;SDS011;4093;53.470;9.832;2023-04-12T01:00:39;8.37;;;4.47;;
8100;SDS011;4093;53.470;9.832;2023-04-12T01:03:07;9.37;;;4.07;;
8100;SDS011;4093;53.470;9.832;2023-04-12T01:05:36;5.97;;;3.80;;
8100;SDS011;4093;53.470;9.832;2023-04-12T01:08:12;10.53;;;4.40;;
8100;SDS011;4093;53.470;9.832;2023-04-12T01:10:48;6.37;;;3.20;;
8100;SDS011;4093;53.470;9.832;2023-04-12T01:13:25;11.13;;;4.00;;
8100;SDS011;4093;53.470;9.832;2023-04-12T01:15:59;9.13;;;4.37;;
8100;SDS011;4093;53.470;9.832;2023-04-12T01:18:35;7.00;;;4.83;;
8100;SDS011;4093;53.470;9.832;2023-04-12T01:21:07;9.10;;;3.97;;
8100;SDS011;4093;53.470;9.832;2023-04-12T01:26:32;6.50;;;3.90;;
8100;SDS011;4093;53.470;9.832;2023-04-12T01:29:06;12.13;;;4.20;;
8100;SDS011;4093;53.470;9.832;2023-04-12T01:31:38;14.53;;;4.20;;
8100;SDS011;4093;53.470;9.832;2023-04-12T01:34:08;8.03;;;3.70;;
8100;SDS011;4093;53.470;9.832;2023-04-12T01:36:38;6.63;;;4.20;;
8100;SDS011;4093;53.470;9.832;2023-04-12T01:39:08;13.83;;;4.40;;
8100;SDS011;4093;53.470;9.832;2023-04-12T01:41:38;6.97;;;3.80;;
8100;SDS011;4093;53.470;9.832;2023-04-12T01:44:11;8.33;;;3.53;;
8100;SDS011;4093;53.470;9.832;2023-04-12T01:46:39;7.30;;;3.43;;
8100;SDS011;4093;53.470;9.832;2023-04-12T01:49:07;6.23;;;4.47;;
8100;SDS011;4093;53.470;9.832;2023-04-12T01:51:38;7.87;;;3.73;;
8100;SDS011;4093;53.470;9.832;2023-04-12T01:54:16;8.03;;;3.87;;
8100;SDS011;4093;53.470;9.832;2023-04-12T01:56:49;7.10;;;3.77;;
8100;SDS011;4093;53.470;9.832;2023-04-12T01:59:25;9.77;;;3.47;;
8100;SDS011;4093;53.470;9.832;2023-04-12T02:01:56;4.93;;;3.50;;
8100;SDS011;4093;53.470;9.832;2023-04-12T02:04:24;6.83;;;3.33;;
8100;SDS011;4093;53.470;9.832;2023-04-12T02:06:53;6.77;;;3.10;;
8100;SDS011;4093;53.470;9.832;2023-04-12T02:09:22;7.90;;;3.40;;
8100;SDS011;4093;53.470;9.832;2023-04-12T02:11:50;7.93;;;3.67;;
8100;SDS011;4093;53.470;9.832;2023-04-12T02:14:17;5.90;;;3.30;;
8100;SDS011;4093;53.470;9.832;2023-04-12T02:16:46;9.17;;;4.23;;
8100;SDS011;4093;53.470;9.832;2023-04-12T02:19:15;13.63;;;4.00;;
8100;SDS011;4093;53.470;9.832;2023-04-12T02:21:44;5.93;;;3.67;;
8100;SDS011;4093;53.470;9.832;2023-04-12T02:24:13;10.03;;;3.60;;
8100;SDS011;4093;53.470;9.832;2023-04-12T02:26:41;6.87;;;3.53;;
8100;SDS011;4093;53.470;9.832;2023-04-12T02:29:09;9.20;;;3.53;;
8100;SDS011;4093;53.470;9.832;2023-04-12T02:31:37;7.37;;;3.47;;
8100;SDS011;4093;53.470;9.832;2023-04-12T02:34:06;8.10;;;3.53;;
8100;SDS011;4093;53.470;9.832;2023-04-12T02:36:34;5.13;;;4.00;;
8100;SDS011;4093;53.470;9.832;2023-04-12T02:39:03;4.93;;;3.67;;
8100;SDS011;4093;53.470;9.832;2023-04-12T02:41:31;7.33;;;3.53;;
8100;SDS011;4093;53.470;9.832;2023-04-12T02:43:59;10.97;;;3.70;;
8100;SDS011;4093;53.470;9.832;2023-04-12T02:46:27;5.33;;;3.07;;
8100;SDS011;4093;53.470;9.832;2023-04-12T02:48:55;7.87;;;3.60;;
8100;SDS011;4093;53.470;9.832;2023-04-12T02:51:24;6.97;;;3.93;;
8100;SDS011;4093;53.470;9.832;2023-04-12T02:53:53;6.20;;;3.50;;
8100;SDS011;4093;53.470;9.832;2023-04-12T02:56:21;8.17;;;3.40;;
8100;SDS011;4093;53.470;9.832;2023-04-12T02:58:49;5.63;;;3.43;;
8100;SDS011;4093;53.470;9.832;2023-04-12T03:01:17;5.03;;;3.17;;
8100;SDS011;4093;53.470;9.832;2023-04-12T03:03:45;7.63;;;3.60;;
8100;SDS011;4093;53.470;9.832;2023-04-12T03:06:13;4.90;;;3.33;;
8100;SDS011;4093;53.470;9.832;2023-04-12T03:08:42;9.03;;;3.33;;
8100;SDS011;4093;53.470;9.832;2023-04-12T03:11:10;5.83;;;3.40;;
8100;SDS011;4093;53.470;9.832;2023-04-12T03:13:37;8.40;;;3.50;;
8100;SDS011;4093;53.470;9.832;2023-04-12T03:16:18;9.73;;;3.50;;
8100;SDS011;4093;53.470;9.832;2023-04-12T03:18:48;7.87;;;3.67;;
8100;SDS011;4093;53.470;9.832;2023-04-12T03:21:16;5.27;;;3.10;;
8100;SDS011;4093;53.470;9.832;2023-04-12T03:23:45;6.53;;;3.07;;
8100;SDS011;4093;53.470;9.832;2023-04-12T03:26:13;6.37;;;3.30;;
8100;SDS011;4093;53.470;9.832;2023-04-12T03:28:41;5.00;;;3.40;;
8100;SDS011;4093;53.470;9.832;2023-04-12T03:31:10;5.67;;;3.30;;
8100;SDS011;4093;53.470;9.832;2023-04-12T03:33:38;10.13;;;3.93;;
8100;SDS011;4093;53.470;9.832;2023-04-12T03:36:07;3.80;;;3.30;;
8100;SDS011;4093;53.470;9.832;2023-04-12T03:38:35;7.60;;;3.83;;
8100;SDS011;4093;53.470;9.832;2023-04-12T03:41:05;5.60;;;3.73;;
8100;SDS011;4093;53.470;9.832;2023-04-12T03:43:33;7.73;;;3.47;;
8100;SDS011;4093;53.470;9.832;2023-04-12T03:46:02;7.80;;;3.13;;
8100;SDS011;4093;53.470;9.832;2023-04-12T03:48:31;8.67;;;3.30;;
8100;SDS011;4093;53.470;9.832;2023-04-12T03:50:58;5.17;;;3.50;;
8100;SDS011;4093;53.470;9.832;2023-04-12T03:53:33;5.03;;;3.10;;
8100;SDS011;4093;53.470;9.832;2023-04-12T03:56:02;4.47;;;3.20;;
8100;SDS011;4093;53.470;9.832;2023-04-12T03:58:31;3.90;;;3.20;;
8100;SDS011;4093;53.470;9.832;2023-04-12T04:00:59;8.83;;;3.43;;
8100;SDS011;4093;53.470;9.832;2023-04-12T04:03:29;4.50;;;3.30;;
8100;SDS011;4093;53.470;9.832;2023-04-12T04:06:00;4.23;;;3.50;;
8100;SDS011;4093;53.470;9.832;2023-04-12T04:08:28;5.07;;;3.50;;
8100;SDS011;4093;53.470;9.832;2023-04-12T04:10:57;7.37;;;3.47;;
8100;SDS011;4093;53.470;9.832;2023-04-12T04:13:26;9.77;;;3.50;;
8100;SDS011;4093;53.470;9.832;2023-04-12T04:15:57;6.23;;;2.97;;
8100;SDS011;4093;53.470;9.832;2023-04-12T04:18:26;5.27;;;3.53;;
8100;SDS011;4093;53.470;9.832;2023-04-12T04:20:54;3.90;;;3.60;;
8100;SDS011;4093;53.470;9.832;2023-04-12T04:23:21;7.17;;;3.63;;
8100;SDS011;4093;53.470;9.832;2023-04-12T04:25:49;10.13;;;3.47;;
8100;SDS011;4093;53.470;9.832;2023-04-12T04:28:19;6.23;;;3.67;;
8100;SDS011;4093;53.470;9.832;2023-04-12T04:30:47;7.90;;;3.40;;
8100;SDS011;4093;53.470;9.832;2023-04-12T04:33:18;5.50;;;3.37;;
8100;SDS011;4093;53.470;9.832;2023-04-12T04:35:46;8.20;;;3.80;;
8100;SDS011;4093;53.470;9.832;2023-04-12T04:38:14;5.00;;;3.40;;
8100;SDS011;4093;53.470;9.832;2023-04-12T04:40:41;7.10;;;3.40;;
8100;SDS011;4093;53.470;9.832;2023-04-12T04:43:09;8.33;;;3.67;;
8100;SDS011;4093;53.470;9.832;2023-04-12T04:45:39;9.63;;;3.30;;
8100;SDS011;4093;53.470;9.832;2023-04-12T04:48:09;7.57;;;3.47;;
8100;SDS011;4093;53.470;9.832;2023-04-12T04:50:38;7.73;;;3.20;;
8100;SDS011;4093;53.470;9.832;2023-04-12T04:53:06;9.90;;;3.67;;
8100;SDS011;4093;53.470;9.832;2023-04-12T04:55:33;7.23;;;3.47;;
8100;SDS011;4093;53.470;9.832;2023-04-12T04:58:01;3.97;;;2.97;;
8100;SDS011;4093;53.470;9.832;2023-04-12T05:00:29;9.57;;;3.30;;
8100;SDS011;4093;53.470;9.832;2023-04-12T05:02:56;4.63;;;3.63;;
8100;SDS011;4093;53.470;9.832;2023-04-12T05:05:24;5.17;;;3.27;;
8100;SDS011;4093;53.470;9.832;2023-04-12T05:07:53;4.97;;;3.40;;
8100;SDS011;4093;53.470;9.832;2023-04-12T05:10:22;6.77;;;3.20;;
8100;SDS011;4093;53.470;9.832;2023-04-12T05:12:50;5.90;;;3.50;;
8100;SDS011;4093;53.470;9.832;2023-04-12T05:15:18;5.17;;;3.30;;
8100;SDS011;4093;53.470;9.832;2023-04-12T05:17:46;5.40;;;3.00;;
8100;SDS011;4093;53.470;9.832;2023-04-12T05:20:14;3.90;;;3.50;;
8100;SDS011;4093;53.470;9.832;2023-04-12T05:22:41;5.63;;;3.37;;
8100;SDS011;4093;53.470;9.832;2023-04-12T05:25:10;4.83;;;3.20;;
8100;SDS011;4093;53.470;9.832;2023-04-12T05:27:39;4.03;;;3.07;;
8100;SDS011;4093;53.470;9.832;2023-04-12T05:30:07;6.03;;;3.50;;
8100;SDS011;4093;53.470;9.832;2023-04-12T05:32:35;5.83;;;3.20;;
8100;SDS011;4093;53.470;9.832;2023-04-12T05:35:03;8.43;;;3.50;;
8100;SDS011;4093;53.470;9.832;2023-04-12T05:37:32;6.13;;;3.10;;
8100;SDS011;4093;53.470;9.832;2023-04-12T05:39:59;5.33;;;3.17;;
8100;SDS011;4093;53.470;9.832;2023-04-12T05:42:28;7.03;;;3.10;;
8100;SDS011;4093;53.470;9.832;2023-04-12T05:44:56;5.17;;;3.43;;
8100;SDS011;4093;53.470;9.832;2023-04-12T05:47:24;7.90;;;3.53;;
8100;SDS011;4093;53.470;9.832;2023-04-12T05:49:52;7.27;;;3.00;;
8100;SDS011;4093;53.470;9.832;2023-04-12T05:52:20;5.23;;;2.90;;
8100;SDS011;4093;53.470;9.832;2023-04-12T05:54:47;5.00;;;2.97;;
8100;SDS011;4093;53.470;9.832;2023-04-12T05:57:15;9.23;;;3.50;;
8100;SDS011;4093;53.470;9.832;2023-04-12T05:59:44;4.97;;;2.83;;
8100;SDS011;4093;53.470;9.832;2023-04-12T06:02:12;5.30;;;2.70;;
8100;SDS011;4093;53.470;9.832;2023-04-12T06:04:40;4.63;;;3.03;;
8100;SDS011;4093;53.470;9.832;2023-04-12T06:07:17;10.90;;;3.60;;
8100;SDS011;4093;53.470;9.832;2023-04-12T06:09:45;6.03;;;2.90;;
8100;SDS011;4093;53.470;9.832;2023-04-12T06:12:13;3.77;;;2.60;;
8100;SDS011;4093;53.470;9.832;2023-04-12T06:14:41;6.43;;;3.43;;
8100;SDS011;4093;53.470;9.832;2023-04-12T06:17:10;4.07;;;3.00;;
8100;SDS011;4093;53.470;9.832;2023-04-12T06:19:38;5.43;;;3.00;;
8100;SDS011;4093;53.470;9.832;2023-04-12T06:22:05;4.63;;;2.73;;
8100;SDS011;4093;53.470;9.832;2023-04-12T06:24:33;6.03;;;2.80;;
8100;SDS011;4093;53.470;9.832;2023-04-12T06:27:01;4.47;;;2.77;;
8100;SDS011;4093;53.470;9.832;2023-04-12T06:29:28;6.10;;;2.90;;
8100;SDS011;4093;53.470;9.832;2023-04-12T06:31:56;4.20;;;2.50;;
8100;SDS011;4093;53.470;9.832;2023-04-12T06:34:25;4.90;;;3.10;;
8100;SDS011;4093;53.470;9.832;2023-04-12T06:36:53;3.63;;;2.77;;
8100;SDS011;4093;53.470;9.832;2023-04-12T06:39:22;6.63;;;2.97;;
8100;SDS011;4093;53.470;9.832;2023-04-12T06:41:50;3.87;;;2.87;;
8100;SDS011;4093;53.470;9.832;2023-04-12T06:44:18;7.83;;;3.30;;
8100;SDS011;4093;53.470;9.832;2023-04-12T06:46:45;4.37;;;2.63;;
8100;SDS011;4093;53.470;9.832;2023-04-12T06:49:13;6.27;;;2.57;;
8100;SDS011;4093;53.470;9.832;2023-04-12T06:51:42;3.77;;;2.57;;
8100;SDS011;4093;53.470;9.832;2023-04-12T06:54:10;4.03;;;2.60;;
8100;SDS011;4093;53.470;9.832;2023-04-12T06:56:37;4.57;;;2.60;;
8100;SDS011;4093;53.470;9.832;2023-04-12T06:59:06;4.97;;;2.70;;
8100;SDS011;4093;53.470;9.832;2023-04-12T07:01:34;6.17;;;3.20;;
8100;SDS011;4093;53.470;9.832;2023-04-12T07:04:02;3.93;;;2.70;;
8100;SDS011;4093;53.470;9.832;2023-04-12T07:06:29;3.97;;;2.60;;
8100;SDS011;4093;53.470;9.832;2023-04-12T07:08:59;6.30;;;2.63;;
8100;SDS011;4093;53.470;9.832;2023-04-12T07:11:27;7.30;;;2.90;;
8100;SDS011;4093;53.470;9.832;2023-04-12T07:13:54;4.73;;;2.73;;
8100;SDS011;4093;53.470;9.832;2023-04-12T07:16:24;8.10;;;3.07;;
8100;SDS011;4093;53.470;9.832;2023-04-12T07:18:52;5.70;;;2.70;;
8100;SDS011;4093;53.470;9.832;2023-04-12T07:21:19;6.50;;;3.37;;
8100;SDS011;4093;53.470;9.832;2023-04-12T07:23:47;5.53;;;2.60;;
8100;SDS011;4093;53.470;9.832;2023-04-12T07:26:17;3.43;;;2.63;;
8100;SDS011;4093;53.470;9.832;2023-04-12T07:28:46;4.27;;;2.23;;
8100;SDS011;4093;53.470;9.832;2023-04-12T07:31:14;5.23;;;2.20;;
8100;SDS011;4093;53.470;9.832;2023-04-12T07:33:42;5.23;;;2.47;;
8100;SDS011;4093;53.470;9.832;2023-04-12T07:36:10;6.30;;;2.57;;
8100;SDS011;4093;53.470;9.832;2023-04-12T07:38:38;5.57;;;2.47;;
8100;SDS011;4093;53.470;9.832;2023-04-12T07:41:05;4.63;;;2.50;;
8100;SDS011;4093;53.470;9.832;2023-04-12T07:43:35;4.53;;;2.30;;
8100;SDS011;4093;53.470;9.832;2023-04-12T07:46:02;6.00;;;2.37;;
8100;SDS011;4093;53.470;9.832;2023-04-12T07:48:33;4.10;;;2.20;;
8100;SDS011;4093;53.470;9.832;2023-04-12T07:51:01;4.40;;;2.37;;
8100;SDS011;4093;53.470;9.832;2023-04-12T07:53:29;6.77;;;2.50;;
8100;SDS011;4093;53.470;9.832;2023-04-12T07:55:56;5.60;;;3.00;;
8100;SDS011;4093;53.470;9.832;2023-04-12T07:58:24;2.73;;;2.30;;
8100;SDS011;4093;53.470;9.832;2023-04-12T08:00:53;2.43;;;2.13;;
8100;SDS011;4093;53.470;9.832;2023-04-12T08:03:25;5.40;;;2.30;;
8100;SDS011;4093;53.470;9.832;2023-04-12T08:05:52;6.37;;;2.80;;
8100;SDS011;4093;53.470;9.832;2023-04-12T08:08:20;4.53;;;1.97;;
8100;SDS011;4093;53.470;9.832;2023-04-12T08:10:49;5.60;;;2.30;;
8100;SDS011;4093;53.470;9.832;2023-04-12T08:13:17;5.80;;;2.43;;
8100;SDS011;4093;53.470;9.832;2023-04-12T08:15:45;4.93;;;2.30;;
8100;SDS011;4093;53.470;9.832;2023-04-12T08:18:15;4.73;;;2.33;;
8100;SDS011;4093;53.470;9.832;2023-04-12T08:20:42;6.90;;;2.33;;
8100;SDS011;4093;53.470;9.832;2023-04-12T08:23:10;6.03;;;2.13;;
8100;SDS011;4093;53.470;9.832;2023-04-12T08:25:38;5.03;;;2.30;;
8100;SDS011;4093;53.470;9.832;2023-04-12T08:28:06;3.90;;;2.40;;
8100;SDS011;4093;53.470;9.832;2023-04-12T08:30:34;5.43;;;2.53;;
8100;SDS011;4093;53.470;9.832;2023-04-12T08:33:02;6.13;;;2.67;;
8100;SDS011;4093;53.470;9.832;2023-04-12T08:35:31;4.80;;;2.30;;
8100;SDS011;4093;53.470;9.832;2023-04-12T08:37:59;5.23;;;2.70;;
8100;SDS011;4093;53.470;9.832;2023-04-12T08:40:32;4.67;;;2.70;;
8100;SDS011;4093;53.470;9.832;2023-04-12T08:43:00;5.00;;;2.50;;
8100;SDS011;4093;53.470;9.832;2023-04-12T08:45:29;4.97;;;2.10;;
8100;SDS011;4093;53.470;9.832;2023-04-12T08:48:00;5.50;;;2.60;;
8100;SDS011;4093;53.470;9.832;2023-04-12T08:50:29;3.93;;;2.30;;
8100;SDS011;4093;53.470;9.832;2023-04-12T08:52:58;6.30;;;2.10;;
8100;SDS011;4093;53.470;9.832;2023-04-12T08:55:26;4.90;;;2.80;;
8100;SDS011;4093;53.470;9.832;2023-04-12T08:57:54;8.13;;;2.70;;
8100;SDS011;4093;53.470;9.832;2023-04-12T09:00:22;4.93;;;2.30;;
8100;SDS011;4093;53.470;9.832;2023-04-12T09:02:50;4.63;;;2.63;;
8100;SDS011;4093;53.470;9.832;2023-04-12T09:05:18;6.23;;;2.50;;
8100;SDS011;4093;53.470;9.832;2023-04-12T09:07:48;6.27;;;2.53;;
8100;SDS011;4093;53.470;9.832;2023-04-12T09:10:29;4.80;;;2.40;;
8100;SDS011;4093;53.470;9.832;2023-04-12T09:12:58;5.50;;;2.77;;
8100;SDS011;4093;53.470;9.832;2023-04-12T09:15:26;4.60;;;2.50;;
8100;SDS011;4093;53.470;9.832;2023-04-12T09:18:04;4.10;;;2.33;;
8100;SDS011;4093;53.470;9.832;2023-04-12T09:20:33;3.43;;;2.70;;
8100;SDS011;4093;53.470;9.832;2023-04-12T09:23:13;5.33;;;2.80;;
8100;SDS011;4093;53.470;9.832;2023-04-12T09:25:44;5.23;;;2.47;;
8100;SDS011;4093;53.470;9.832;2023-04-12T09:28:22;4.47;;;2.67;;
8100;SDS011;4093;53.470;9.832;2023-04-12T09:30:51;3.77;;;2.30;;
8100;SDS011;4093;53.470;9.832;2023-04-12T09:33:20;4.07;;;2.37;;
8100;SDS011;4093;53.470;9.832;2023-04-12T09:35:49;5.00;;;2.37;;
8100;SDS011;4093;53.470;9.832;2023-04-12T09:38:18;4.80;;;2.70;;
8100;SDS011;4093;53.470;9.832;2023-04-12T09:40:47;5.67;;;3.03;;
8100;SDS011;4093;53.470;9.832;2023-04-12T09:43:15;4.43;;;2.50;;
8100;SDS011;4093;53.470;9.832;2023-04-12T09:45:43;3.70;;;2.40;;
8100;SDS011;4093;53.470;9.832;2023-04-12T09:48:17;6.80;;;2.30;;
8100;SDS011;4093;53.470;9.832;2023-04-12T09:50:45;4.60;;;2.70;;
8100;SDS011;4093;53.470;9.832;2023-04-12T09:53:14;3.67;;;2.53;;
8100;SDS011;4093;53.470;9.832;2023-04-12T09:55:43;4.47;;;2.20;;
8100;SDS011;4093;53.470;9.832;2023-04-12T09:58:14;3.90;;;2.50;;
8100;SDS011;4093;53.470;9.832;2023-04-12T10:00:45;5.20;;;2.40;;
8100;SDS011;4093;53.470;9.832;2023-04-12T10:03:13;2.83;;;2.27;;
8100;SDS011;4093;53.470;9.832;2023-04-12T10:05:41;6.17;;;2.60;;
8100;SDS011;4093;53.470;9.832;2023-04-12T10:08:10;4.43;;;2.67;;
8100;SDS011;4093;53.470;9.832;2023-04-12T10:10:38;8.20;;;2.93;;
8100;SDS011;4093;53.470;9.832;2023-04-12T10:13:06;4.80;;;2.57;;
8100;SDS011;4093;53.470;9.832;2023-04-12T10:15:36;6.47;;;2.80;;
8100;SDS011;4093;53.470;9.832;2023-04-12T10:18:05;10.37;;;2.80;;
8100;SDS011;4093;53.470;9.832;2023-04-12T10:20:33;7.63;;;3.00;;
8100;SDS011;4093;53.470;9.832;2023-04-12T10:23:01;3.73;;;2.67;;
8100;SDS011;4093;53.470;9.832;2023-04-12T10:25:29;7.07;;;2.90;;
8100;SDS011;4093;53.470;9.832;2023-04-12T10:27:58;5.23;;;2.80;;
8100;SDS011;4093;53.470;9.832;2023-04-12T10:30:41;6.37;;;2.87;;
8100;SDS011;4093;53.470;9.832;2023-04-12T10:33:12;4.87;;;2.60;;
8100;SDS011;4093;53.470;9.832;2023-04-12T10:35:52;6.07;;;2.93;;
8100;SDS011;4093;53.470;9.832;2023-04-12T10:38:26;6.67;;;2.70;;
8100;SDS011;4093;53.470;9.832;2023-04-12T10:43:50;6.50;;;2.67;;
8100;SDS011;4093;53.470;9.832;2023-04-12T10:49:18;6.77;;;2.63;;
8100;SDS011;4093;53.470;9.832;2023-04-12T10:54:41;6.37;;;2.77;;
8100;SDS011;4093;53.470;9.832;2023-04-12T11:00:07;5.20;;;2.70;;
8100;SDS011;4093;53.470;9.832;2023-04-12T11:05:56;7.07;;;3.50;;
8100;SDS011;4093;53.470;9.832;2023-04-12T11:08:38;5.90;;;3.60;;
8100;SDS011;4093;53.470;9.832;2023-04-12T11:11:17;5.77;;;3.13;;
8100;SDS011;4093;53.470;9.832;2023-04-12T11:13:46;6.23;;;3.37;;
8100;SDS011;4093;53.470;9.832;2023-04-12T11:16:14;5.50;;;3.13;;
8100;SDS011;4093;53.470;9.832;2023-04-12T11:18:43;5.40;;;3.30;;
8100;SDS011;4093;53.470;9.832;2023-04-12T11:21:12;6.30;;;3.50;;
8100;SDS011;4093;53.470;9.832;2023-04-12T11:23:41;7.00;;;3.73;;
8100;SDS011;4093;53.470;9.832;2023-04-12T11:26:09;5.03;;;3.53;;
8100;SDS011;4093;53.470;9.832;2023-04-12T11:28:37;4.93;;;3.23;;
8100;SDS011;4093;53.470;9.832;2023-04-12T11:31:05;3.40;;;2.77;;
8100;SDS011;4093;53.470;9.832;2023-04-12T11:33:33;5.47;;;3.13;;
8100;SDS011;4093;53.470;9.832;2023-04-12T11:36:04;5.13;;;3.07;;
8100;SDS011;4093;53.470;9.832;2023-04-12T11:38:33;5.23;;;3.10;;
8100;SDS011;4093;53.470;9.832;2023-04-12T11:41:03;8.27;;;3.33;;
8100;SDS011;4093;53.470;9.832;2023-04-12T11:43:32;6.07;;;3.40;;
8100;SDS011;4093;53.470;9.832;2023-04-12T11:46:00;3.57;;;3.27;;
8100;SDS011;4093;53.470;9.832;2023-04-12T11:48:28;6.20;;;3.50;;
8100;SDS011;4093;53.470;9.832;2023-04-12T11:50:56;4.87;;;3.60;;
8100;SDS011;4093;53.470;9.832;2023-04-12T11:53:38;6.23;;;3.83;;
8100;SDS011;4093;53.470;9.832;2023-04-12T11:56:06;7.67;;;4.03;;
8100;SDS011;4093;53.470;9.832;2023-04-12T11:58:36;5.40;;;3.63;;
8100;SDS011;4093;53.470;9.832;2023-04-12T12:01:04;4.90;;;3.53;;
8100;SDS011;4093;53.470;9.832;2023-04-12T12:03:32;4.63;;;3.30;;
8100;SDS011;4093;53.470;9.832;2023-04-12T12:06:00;5.77;;;3.10;;
8100;SDS011;4093;53.470;9.832;2023-04-12T12:08:29;5.70;;;3.30;;
8100;SDS011;4093;53.470;9.832;2023-04-12T12:10:58;4.17;;;2.80;;
8100;SDS011;4093;53.470;9.832;2023-04-12T12:13:43;3.63;;;2.50;;
8100;SDS011;4093;53.470;9.832;2023-04-12T12:16:12;3.90;;;2.93;;
8100;SDS011;4093;53.470;9.832;2023-04-12T12:18:40;3.93;;;2.90;;
8100;SDS011;4093;53.470;9.832;2023-04-12T12:21:09;4.87;;;2.90;;
8100;SDS011;4093;53.470;9.832;2023-04-12T12:23:38;4.60;;;3.00;;
8100;SDS011;4093;53.470;9.832;2023-04-12T12:26:13;4.70;;;3.10;;
8100;SDS011;4093;53.470;9.832;2023-04-12T12:28:48;4.50;;;2.90;;
8100;SDS011;4093;53.470;9.832;2023-04-12T12:31:18;5.93;;;2.90;;
8100;SDS011;4093;53.470;9.832;2023-04-12T12:33:46;5.30;;;3.23;;
8100;SDS011;4093;53.470;9.832;2023-04-12T12:36:16;5.13;;;3.60;;
8100;SDS011;4093;53.470;9.832;2023-04-12T12:38:45;3.50;;;3.20;;
8100;SDS011;4093;53.470;9.832;2023-04-12T12:41:16;5.07;;;3.33;;
8100;SDS011;4093;53.470;9.832;2023-04-12T12:43:46;5.43;;;3.67;;
8100;SDS011;4093;53.470;9.832;2023-04-12T12:46:14;4.60;;;4.10;;
8100;SDS011;4093;53.470;9.832;2023-04-12T12:48:44;4.97;;;3.87;;
8100;SDS011;4093;53.470;9.832;2023-04-12T12:51:13;5.17;;;4.10;;
8100;SDS011;4093;53.470;9.832;2023-04-12T12:53:43;5.13;;;4.23;;
8100;SDS011;4093;53.470;9.832;2023-04-12T12:56:11;5.47;;;4.13;;
8100;SDS011;4093;53.470;9.832;2023-04-12T12:58:41;5.87;;;4.40;;
8100;SDS011;4093;53.470;9.832;2023-04-12T13:01:09;6.17;;;4.20;;
8100;SDS011;4093;53.470;9.832;2023-04-12T13:03:37;7.03;;;4.20;;
8100;SDS011;4093;53.470;9.832;2023-04-12T13:06:05;7.17;;;4.10;;
8100;SDS011;4093;53.470;9.832;2023-04-12T13:08:33;7.73;;;4.13;;
8100;SDS011;4093;53.470;9.832;2023-04-12T13:11:02;4.87;;;3.57;;
8100;SDS011;4093;53.470;9.832;2023-04-12T13:13:30;7.10;;;4.23;;
8100;SDS011;4093;53.470;9.832;2023-04-12T13:15:59;5.27;;;4.43;;
8100;SDS011;4093;53.470;9.832;2023-04-12T13:18:27;6.03;;;4.67;;
8100;SDS011;4093;53.470;9.832;2023-04-12T13:20:55;7.47;;;4.10;;
8100;SDS011;4093;53.470;9.832;2023-04-12T13:23:23;6.27;;;4.10;;
8100;SDS011;4093;53.470;9.832;2023-04-12T13:25:50;5.50;;;4.07;;
8100;SDS011;4093;53.470;9.832;2023-04-12T13:28:18;5.97;;;4.20;;
8100;SDS011;4093;53.470;9.832;2023-04-12T13:30:46;5.23;;;3.97;;
8100;SDS011;4093;53.470;9.832;2023-04-12T13:33:15;5.60;;;3.80;;
8100;SDS011;4093;53.470;9.832;2023-04-12T13:35:47;6.03;;;4.17;;
8100;SDS011;4093;53.470;9.832;2023-04-12T13:38:15;4.90;;;4.50;;
8100;SDS011;4093;53.470;9.832;2023-04-12T13:40:42;7.07;;;4.47;;
8100;SDS011;4093;53.470;9.832;2023-04-12T13:43:10;5.93;;;5.33;;
8100;SDS011;4093;53.470;9.832;2023-04-12T13:45:38;6.07;;;4.00;;
8100;SDS011;4093;53.470;9.832;2023-04-12T13:48:05;8.03;;;4.20;;
8100;SDS011;4093;53.470;9.832;2023-04-12T13:50:35;5.17;;;3.80;;
8100;SDS011;4093;53.470;9.832;2023-04-12T13:53:02;6.13;;;3.80;;
8100;SDS011;4093;53.470;9.832;2023-04-12T13:55:30;5.60;;;4.00;;
8100;SDS011;4093;53.470;9.832;2023-04-12T13:57:57;6.20;;;3.80;;
8100;SDS011;4093;53.470;9.832;2023-04-12T14:00:25;7.03;;;3.90;;
8100;SDS011;4093;53.470;9.832;2023-04-12T14:02:53;6.53;;;3.57;;
8100;SDS011;4093;53.470;9.832;2023-04-12T14:05:20;7.80;;;3.70;;
8100;SDS011;4093;53.470;9.832;2023-04-12T14:07:50;3.97;;;3.60;;
8100;SDS011;4093;53.470;9.832;2023-04-12T14:10:17;3.83;;;3.47;;
8100;SDS011;4093;53.470;9.832;2023-04-12T14:12:45;6.03;;;3.63;;
8100;SDS011;4093;53.470;9.832;2023-04-12T14:15:13;5.30;;;3.90;;
8100;SDS011;4093;53.470;9.832;2023-04-12T14:17:41;5.43;;;3.73;;
8100;SDS011;4093;53.470;9.832;2023-04-12T14:20:09;6.30;;;3.70;;
8100;SDS011;4093;53.470;9.832;2023-04-12T14:22:37;6.77;;;4.40;;
8100;SDS011;4093;53.470;9.832;2023-04-12T14:25:07;4.50;;;3.80;;
8100;SDS011;4093;53.470;9.832;2023-04-12T14:27:36;4.17;;;3.77;;
8100;SDS011;4093;53.470;9.832;2023-04-12T14:30:05;4.53;;;3.73;;
8100;SDS011;4093;53.470;9.832;2023-04-12T14:32:33;5.13;;;4.23;;
8100;SDS011;4093;53.470;9.832;2023-04-12T14:35:01;4.13;;;3.70;;
8100;SDS011;4093;53.470;9.832;2023-04-12T14:37:29;3.73;;;3.40;;
8100;SDS011;4093;53.470;9.832;2023-04-12T14:39:58;5.23;;;3.57;;
8100;SDS011;4093;53.470;9.832;2023-04-12T14:42:27;4.47;;;3.50;;
8100;SDS011;4093;53.470;9.832;2023-04-12T14:44:54;4.87;;;3.83;;
8100;SDS011;4093;53.470;9.832;2023-04-12T14:47:22;3.53;;;3.23;;
8100;SDS011;4093;53.470;9.832;2023-04-12T14:49:50;4.87;;;3.53;;
8100;SDS011;4093;53.470;9.832;2023-04-12T14:52:18;7.53;;;4.43;;
8100;SDS011;4093;53.470;9.832;2023-04-12T14:54:45;5.33;;;3.60;;
8100;SDS011;4093;53.470;9.832;2023-04-12T14:57:13;6.40;;;3.17;;
8100;SDS011;4093;53.470;9.832;2023-04-12T14:59:42;6.20;;;3.90;;
8100;SDS011;4093;53.470;9.832;2023-04-12T15:02:10;4.17;;;3.10;;
8100;SDS011;4093;53.470;9.832;2023-04-12T15:04:38;4.43;;;3.00;;
8100;SDS011;4093;53.470;9.832;2023-04-12T15:07:06;4.33;;;3.90;;
8100;SDS011;4093;53.470;9.832;2023-04-12T15:09:34;4.33;;;2.93;;
8100;SDS011;4093;53.470;9.832;2023-04-12T15:12:02;3.80;;;3.00;;
8100;SDS011;4093;53.470;9.832;2023-04-12T15:14:29;5.17;;;3.30;;
8100;SDS011;4093;53.470;9.832;2023-04-12T15:16:58;3.30;;;3.00;;
8100;SDS011;4093;53.470;9.832;2023-04-12T15:19:26;5.60;;;3.63;;
8100;SDS011;4093;53.470;9.832;2023-04-12T15:21:53;4.70;;;3.43;;
8100;SDS011;4093;53.470;9.832;2023-04-12T15:24:21;3.53;;;2.93;;
8100;SDS011;4093;53.470;9.832;2023-04-12T15:26:50;7.23;;;3.70;;
8100;SDS011;4093;53.470;9.832;2023-04-12T15:29:18;5.93;;;3.67;;
8100;SDS011;4093;53.470;9.832;2023-04-12T15:31:47;7.87;;;3.00;;
8100;SDS011;4093;53.470;9.832;2023-04-12T15:34:17;4.20;;;3.60;;
8100;SDS011;4093;53.470;9.832;2023-04-12T15:36:44;4.37;;;3.23;;
8100;SDS011;4093;53.470;9.832;2023-04-12T15:39:12;3.00;;;2.63;;
8100;SDS011;4093;53.470;9.832;2023-04-12T15:41:40;4.20;;;3.30;;
8100;SDS011;4093;53.470;9.832;2023-04-12T15:44:09;4.70;;;3.40;;